sensor_id;sensor_type;location;lat;lon;timestamp;P1;durP1;ratioP1;P2;durP2;ratioP2
69954;SDS011;57279;55.912;37.490;2022-12-07T00:02:25;9.07;;;1.75;;
69954;SDS011;57279;55.912;37.490;2022-12-07T00:04:50;10.93;;;1.83;;
69954;SDS011;57279;55.912;37.490;2022-12-07T00:07:16;7.70;;;1.60;;
69954;SDS011;57279;55.912;37.490;2022-12-07T00:09:42;8.68;;;1.80;;
69954;SDS011;57279;55.912;37.490;2022-12-07T00:12:07;7.72;;;1.67;;
69954;SDS011;57279;55.912;37.490;2022-12-07T00:14:33;7.20;;;1.52;;
69954;SDS011;57279;55.912;37.490;2022-12-07T00:16:59;7.20;;;1.50;;
69954;SDS011;57279;55.912;37.490;2022-12-07T00:19:24;7.80;;;1.40;;
69954;SDS011;57279;55.912;37.490;2022-12-07T00:21:50;10.10;;;1.88;;
69954;SDS011;57279;55.912;37.490;2022-12-07T00:24:16;12.25;;;1.83;;
69954;SDS011;57279;55.912;37.490;2022-12-07T00:26:42;9.35;;;1.42;;
69954;SDS011;57279;55.912;37.490;2022-12-07T00:29:14;7.07;;;1.45;;
69954;SDS011;57279;55.912;37.490;2022-12-07T00:31:42;7.60;;;1.40;;
69954;SDS011;57279;55.912;37.490;2022-12-07T00:34:12;8.10;;;1.58;;
69954;SDS011;57279;55.912;37.490;2022-12-07T00:36:39;9.90;;;1.60;;
69954;SDS011;57279;55.912;37.490;2022-12-07T00:39:05;8.73;;;1.85;;
69954;SDS011;57279;55.912;37.490;2022-12-07T00:41:30;10.85;;;1.95;;
69954;SDS011;57279;55.912;37.490;2022-12-07T00:43:56;8.43;;;1.88;;
69954;SDS011;57279;55.912;37.490;2022-12-07T00:46:22;8.32;;;1.65;;
69954;SDS011;57279;55.912;37.490;2022-12-07T00:51:16;8.38;;;1.65;;
69954;SDS011;57279;55.912;37.490;2022-12-07T00:53:43;10.45;;;1.90;;
69954;SDS011;57279;55.912;37.490;2022-12-07T00:56:13;8.13;;;1.80;;
69954;SDS011;57279;55.912;37.490;2022-12-07T00:58:41;11.57;;;2.15;;
69954;SDS011;57279;55.912;37.490;2022-12-07T01:01:08;7.03;;;1.65;;
69954;SDS011;57279;55.912;37.490;2022-12-07T01:03:35;9.38;;;1.60;;
69954;SDS011;57279;55.912;37.490;2022-12-07T01:06:01;10.82;;;1.60;;
69954;SDS011;57279;55.912;37.490;2022-12-07T01:08:27;7.40;;;1.98;;
69954;SDS011;57279;55.912;37.490;2022-12-07T01:11:00;9.38;;;1.90;;
69954;SDS011;57279;55.912;37.490;2022-12-07T01:13:28;7.68;;;1.70;;
69954;SDS011;57279;55.912;37.490;2022-12-07T01:15:56;7.82;;;1.70;;
69954;SDS011;57279;55.912;37.490;2022-12-07T01:18:25;9.05;;;1.75;;
69954;SDS011;57279;55.912;37.490;2022-12-07T01:20:59;10.63;;;1.70;;
69954;SDS011;57279;55.912;37.490;2022-12-07T01:23:26;9.13;;;1.63;;
69954;SDS011;57279;55.912;37.490;2022-12-07T01:25:54;8.75;;;1.92;;
69954;SDS011;57279;55.912;37.490;2022-12-07T01:28:30;10.43;;;2.22;;
69954;SDS011;57279;55.912;37.490;2022-12-07T01:30:57;10.93;;;1.77;;
69954;SDS011;57279;55.912;37.490;2022-12-07T01:33:29;7.50;;;1.67;;
69954;SDS011;57279;55.912;37.490;2022-12-07T01:36:02;9.65;;;2.13;;
69954;SDS011;57279;55.912;37.490;2022-12-07T01:38:33;9.88;;;1.90;;
69954;SDS011;57279;55.912;37.490;2022-12-07T01:41:00;11.10;;;1.85;;
69954;SDS011;57279;55.912;37.490;2022-12-07T01:43:27;10.73;;;2.08;;
69954;SDS011;57279;55.912;37.490;2022-12-07T01:45:55;8.23;;;1.98;;
69954;SDS011;57279;55.912;37.490;2022-12-07T01:48:22;10.52;;;1.70;;
69954;SDS011;57279;55.912;37.490;2022-12-07T01:50:53;10.75;;;1.88;;
69954;SDS011;57279;55.912;37.490;2022-12-07T01:53:22;7.53;;;1.50;;
69954;SDS011;57279;55.912;37.490;2022-12-07T01:55:52;8.50;;;2.15;;
69954;SDS011;57279;55.912;37.490;2022-12-07T01:58:20;10.13;;;2.40;;
69954;SDS011;57279;55.912;37.490;2022-12-07T02:00:46;7.63;;;1.92;;
69954;SDS011;57279;55.912;37.490;2022-12-07T02:03:19;7.57;;;1.70;;
69954;SDS011;57279;55.912;37.490;2022-12-07T02:05:49;7.07;;;1.67;;
69954;SDS011;57279;55.912;37.490;2022-12-07T02:08:16;7.63;;;1.70;;
69954;SDS011;57279;55.912;37.490;2022-12-07T02:10:42;10.63;;;1.98;;
69954;SDS011;57279;55.912;37.490;2022-12-07T02:21:13;9.15;;;1.70;;
69954;SDS011;57279;55.912;37.490;2022-12-07T02:29:24;9.60;;;1.85;;
69954;SDS011;57279;55.912;37.490;2022-12-07T02:32:00;7.07;;;1.50;;
69954;SDS011;57279;55.912;37.490;2022-12-07T02:38:22;8.27;;;1.80;;
69954;SDS011;57279;55.912;37.490;2022-12-07T02:45:43;8.13;;;1.70;;
69954;SDS011;57279;55.912;37.490;2022-12-07T02:48:12;9.48;;;1.92;;
69954;SDS011;57279;55.912;37.490;2022-12-07T02:50:44;10.63;;;2.25;;
69954;SDS011;57279;55.912;37.490;2022-12-07T02:53:32;12.75;;;1.88;;
69954;SDS011;57279;55.912;37.490;2022-12-07T02:56:00;8.43;;;1.70;;
69954;SDS011;57279;55.912;37.490;2022-12-07T03:01:15;14.90;;;2.33;;
69954;SDS011;57279;55.912;37.490;2022-12-07T03:03:57;11.48;;;2.05;;
69954;SDS011;57279;55.912;37.490;2022-12-07T03:06:49;10.00;;;2.22;;
69954;SDS011;57279;55.912;37.490;2022-12-07T03:09:36;8.38;;;1.90;;
69954;SDS011;57279;55.912;37.490;2022-12-07T03:12:10;9.65;;;2.17;;
69954;SDS011;57279;55.912;37.490;2022-12-07T03:14:43;11.55;;;2.33;;
69954;SDS011;57279;55.912;37.490;2022-12-07T03:17:19;8.73;;;2.30;;
69954;SDS011;57279;55.912;37.490;2022-12-07T03:19:51;11.40;;;2.20;;
69954;SDS011;57279;55.912;37.490;2022-12-07T03:22:21;13.02;;;2.28;;
69954;SDS011;57279;55.912;37.490;2022-12-07T03:24:50;9.68;;;1.85;;
69954;SDS011;57279;55.912;37.490;2022-12-07T03:27:26;7.95;;;1.80;;
69954;SDS011;57279;55.912;37.490;2022-12-07T03:29:59;10.65;;;2.00;;
69954;SDS011;57279;55.912;37.490;2022-12-07T03:32:33;10.35;;;2.20;;
69954;SDS011;57279;55.912;37.490;2022-12-07T03:42:31;11.48;;;2.95;;
69954;SDS011;57279;55.912;37.490;2022-12-07T03:44:58;14.23;;;3.03;;
69954;SDS011;57279;55.912;37.490;2022-12-07T03:47:26;14.98;;;2.17;;
69954;SDS011;57279;55.912;37.490;2022-12-07T03:50:02;17.70;;;2.45;;
69954;SDS011;57279;55.912;37.490;2022-12-07T03:55:46;10.05;;;2.60;;
69954;SDS011;57279;55.912;37.490;2022-12-07T03:58:12;10.98;;;2.55;;
69954;SDS011;57279;55.912;37.490;2022-12-07T04:00:42;10.40;;;2.70;;
69954;SDS011;57279;55.912;37.490;2022-12-07T04:03:09;10.50;;;2.55;;
69954;SDS011;57279;55.912;37.490;2022-12-07T04:08:01;11.35;;;2.10;;
69954;SDS011;57279;55.912;37.490;2022-12-07T04:10:27;11.70;;;2.30;;
69954;SDS011;57279;55.912;37.490;2022-12-07T04:12:53;11.73;;;2.00;;
69954;SDS011;57279;55.912;37.490;2022-12-07T04:15:19;14.77;;;2.28;;
69954;SDS011;57279;55.912;37.490;2022-12-07T04:17:44;10.93;;;2.33;;
69954;SDS011;57279;55.912;37.490;2022-12-07T04:20:10;15.57;;;2.47;;
69954;SDS011;57279;55.912;37.490;2022-12-07T04:22:36;14.85;;;2.83;;
69954;SDS011;57279;55.912;37.490;2022-12-07T04:25:02;10.43;;;2.13;;
69954;SDS011;57279;55.912;37.490;2022-12-07T04:27:28;9.52;;;2.38;;
69954;SDS011;57279;55.912;37.490;2022-12-07T04:29:54;16.25;;;2.75;;
69954;SDS011;57279;55.912;37.490;2022-12-07T04:34:46;13.75;;;3.15;;
69954;SDS011;57279;55.912;37.490;2022-12-07T04:37:12;15.98;;;2.40;;
69954;SDS011;57279;55.912;37.490;2022-12-07T04:39:38;10.73;;;2.30;;
69954;SDS011;57279;55.912;37.490;2022-12-07T04:42:04;10.57;;;2.47;;
69954;SDS011;57279;55.912;37.490;2022-12-07T04:44:29;10.32;;;2.50;;
69954;SDS011;57279;55.912;37.490;2022-12-07T04:46:55;12.82;;;2.78;;
69954;SDS011;57279;55.912;37.490;2022-12-07T04:51:48;10.38;;;2.30;;
69954;SDS011;57279;55.912;37.490;2022-12-07T04:54:15;14.13;;;2.67;;
69954;SDS011;57279;55.912;37.490;2022-12-07T04:56:41;9.63;;;2.53;;
69954;SDS011;57279;55.912;37.490;2022-12-07T04:59:07;9.48;;;2.30;;
69954;SDS011;57279;55.912;37.490;2022-12-07T05:01:34;14.98;;;2.67;;
69954;SDS011;57279;55.912;37.490;2022-12-07T05:04:00;11.18;;;2.30;;
69954;SDS011;57279;55.912;37.490;2022-12-07T05:06:26;8.60;;;1.98;;
69954;SDS011;57279;55.912;37.490;2022-12-07T05:08:51;10.82;;;2.67;;
69954;SDS011;57279;55.912;37.490;2022-12-07T05:11:17;12.75;;;2.53;;
69954;SDS011;57279;55.912;37.490;2022-12-07T05:14:03;8.68;;;2.50;;
69954;SDS011;57279;55.912;37.490;2022-12-07T05:16:30;11.45;;;1.98;;
69954;SDS011;57279;55.912;37.490;2022-12-07T05:18:56;12.10;;;2.70;;
69954;SDS011;57279;55.912;37.490;2022-12-07T05:21:22;11.52;;;2.95;;
69954;SDS011;57279;55.912;37.490;2022-12-07T05:23:48;10.45;;;3.13;;
69954;SDS011;57279;55.912;37.490;2022-12-07T05:26:14;16.85;;;2.50;;
69954;SDS011;57279;55.912;37.490;2022-12-07T05:28:39;9.15;;;2.35;;
69954;SDS011;57279;55.912;37.490;2022-12-07T05:31:05;12.55;;;2.65;;
69954;SDS011;57279;55.912;37.490;2022-12-07T05:33:31;16.90;;;3.17;;
69954;SDS011;57279;55.912;37.490;2022-12-07T05:35:57;11.75;;;2.45;;
69954;SDS011;57279;55.912;37.490;2022-12-07T05:38:23;13.98;;;2.78;;
69954;SDS011;57279;55.912;37.490;2022-12-07T05:40:50;14.25;;;3.28;;
69954;SDS011;57279;55.912;37.490;2022-12-07T05:43:16;14.38;;;2.55;;
69954;SDS011;57279;55.912;37.490;2022-12-07T05:45:41;16.08;;;3.30;;
69954;SDS011;57279;55.912;37.490;2022-12-07T05:48:07;10.38;;;2.75;;
69954;SDS011;57279;55.912;37.490;2022-12-07T05:50:33;10.95;;;2.65;;
69954;SDS011;57279;55.912;37.490;2022-12-07T05:53:01;10.02;;;2.65;;
69954;SDS011;57279;55.912;37.490;2022-12-07T05:55:27;13.05;;;2.50;;
69954;SDS011;57279;55.912;37.490;2022-12-07T05:57:52;16.70;;;2.78;;
69954;SDS011;57279;55.912;37.490;2022-12-07T06:00:37;13.07;;;2.80;;
69954;SDS011;57279;55.912;37.490;2022-12-07T06:03:02;12.07;;;2.83;;
69954;SDS011;57279;55.912;37.490;2022-12-07T06:05:28;19.75;;;2.72;;
69954;SDS011;57279;55.912;37.490;2022-12-07T06:07:54;11.85;;;3.20;;
69954;SDS011;57279;55.912;37.490;2022-12-07T06:10:19;14.23;;;3.30;;
69954;SDS011;57279;55.912;37.490;2022-12-07T06:12:45;18.15;;;3.13;;
69954;SDS011;57279;55.912;37.490;2022-12-07T06:15:11;11.77;;;2.85;;
69954;SDS011;57279;55.912;37.490;2022-12-07T06:17:38;12.50;;;3.03;;
69954;SDS011;57279;55.912;37.490;2022-12-07T06:20:05;11.55;;;3.10;;
69954;SDS011;57279;55.912;37.490;2022-12-07T06:24:57;18.15;;;3.47;;
69954;SDS011;57279;55.912;37.490;2022-12-07T06:27:22;16.65;;;3.40;;
69954;SDS011;57279;55.912;37.490;2022-12-07T06:29:48;15.88;;;3.22;;
69954;SDS011;57279;55.912;37.490;2022-12-07T06:32:13;16.25;;;3.42;;
69954;SDS011;57279;55.912;37.490;2022-12-07T06:34:39;13.02;;;3.30;;
69954;SDS011;57279;55.912;37.490;2022-12-07T06:37:05;18.58;;;3.83;;
69954;SDS011;57279;55.912;37.490;2022-12-07T06:39:31;26.50;;;3.75;;
69954;SDS011;57279;55.912;37.490;2022-12-07T06:41:56;20.05;;;3.58;;
69954;SDS011;57279;55.912;37.490;2022-12-07T06:44:23;10.73;;;3.35;;
69954;SDS011;57279;55.912;37.490;2022-12-07T06:46:49;13.80;;;3.53;;
69954;SDS011;57279;55.912;37.490;2022-12-07T06:49:15;12.05;;;3.67;;
69954;SDS011;57279;55.912;37.490;2022-12-07T06:51:41;15.85;;;3.35;;
69954;SDS011;57279;55.912;37.490;2022-12-07T06:54:08;16.08;;;3.28;;
69954;SDS011;57279;55.912;37.490;2022-12-07T06:56:35;13.23;;;3.53;;
69954;SDS011;57279;55.912;37.490;2022-12-07T06:59:01;14.73;;;3.88;;
69954;SDS011;57279;55.912;37.490;2022-12-07T07:01:27;17.00;;;4.13;;
69954;SDS011;57279;55.912;37.490;2022-12-07T07:03:53;13.40;;;3.63;;
69954;SDS011;57279;55.912;37.490;2022-12-07T07:06:19;17.02;;;3.63;;
69954;SDS011;57279;55.912;37.490;2022-12-07T07:08:44;15.02;;;4.28;;
69954;SDS011;57279;55.912;37.490;2022-12-07T07:11:10;19.17;;;4.43;;
69954;SDS011;57279;55.912;37.490;2022-12-07T07:13:36;18.13;;;3.63;;
69954;SDS011;57279;55.912;37.490;2022-12-07T07:16:02;13.02;;;3.22;;
69954;SDS011;57279;55.912;37.490;2022-12-07T07:18:28;15.57;;;4.05;;
69954;SDS011;57279;55.912;37.490;2022-12-07T07:20:54;14.20;;;3.65;;
69954;SDS011;57279;55.912;37.490;2022-12-07T07:23:20;14.60;;;4.60;;
69954;SDS011;57279;55.912;37.490;2022-12-07T07:25:47;14.02;;;3.88;;
69954;SDS011;57279;55.912;37.490;2022-12-07T07:28:13;19.58;;;4.50;;
69954;SDS011;57279;55.912;37.490;2022-12-07T07:30:39;17.77;;;4.78;;
69954;SDS011;57279;55.912;37.490;2022-12-07T07:33:05;17.92;;;4.32;;
69954;SDS011;57279;55.912;37.490;2022-12-07T07:35:32;15.98;;;5.57;;
69954;SDS011;57279;55.912;37.490;2022-12-07T07:37:59;28.80;;;4.45;;
69954;SDS011;57279;55.912;37.490;2022-12-07T07:40:25;19.15;;;4.05;;
69954;SDS011;57279;55.912;37.490;2022-12-07T07:42:52;13.15;;;4.95;;
69954;SDS011;57279;55.912;37.490;2022-12-07T07:45:19;12.18;;;3.25;;
69954;SDS011;57279;55.912;37.490;2022-12-07T07:47:46;13.88;;;4.25;;
69954;SDS011;57279;55.912;37.490;2022-12-07T07:50:12;14.88;;;5.18;;
69954;SDS011;57279;55.912;37.490;2022-12-07T07:52:39;19.13;;;4.13;;
69954;SDS011;57279;55.912;37.490;2022-12-07T07:55:05;17.00;;;4.28;;
69954;SDS011;57279;55.912;37.490;2022-12-07T07:57:32;23.70;;;5.25;;
69954;SDS011;57279;55.912;37.490;2022-12-07T07:59:58;15.60;;;4.47;;
69954;SDS011;57279;55.912;37.490;2022-12-07T08:02:23;17.27;;;3.35;;
69954;SDS011;57279;55.912;37.490;2022-12-07T08:04:49;14.63;;;4.00;;
69954;SDS011;57279;55.912;37.490;2022-12-07T08:07:15;12.52;;;4.22;;
69954;SDS011;57279;55.912;37.490;2022-12-07T08:09:41;17.05;;;3.80;;
69954;SDS011;57279;55.912;37.490;2022-12-07T08:12:07;16.23;;;4.15;;
69954;SDS011;57279;55.912;37.490;2022-12-07T08:14:33;17.38;;;4.82;;
69954;SDS011;57279;55.912;37.490;2022-12-07T08:16:59;16.08;;;4.13;;
69954;SDS011;57279;55.912;37.490;2022-12-07T08:19:25;14.27;;;3.95;;
69954;SDS011;57279;55.912;37.490;2022-12-07T08:21:51;13.73;;;4.40;;
69954;SDS011;57279;55.912;37.490;2022-12-07T08:24:16;16.83;;;4.93;;
69954;SDS011;57279;55.912;37.490;2022-12-07T08:26:42;16.55;;;4.10;;
69954;SDS011;57279;55.912;37.490;2022-12-07T08:29:08;15.18;;;4.15;;
69954;SDS011;57279;55.912;37.490;2022-12-07T08:31:34;13.40;;;3.72;;
69954;SDS011;57279;55.912;37.490;2022-12-07T08:34:00;17.08;;;4.88;;
69954;SDS011;57279;55.912;37.490;2022-12-07T08:36:26;16.13;;;3.88;;
69954;SDS011;57279;55.912;37.490;2022-12-07T08:38:52;18.60;;;4.70;;
69954;SDS011;57279;55.912;37.490;2022-12-07T08:41:18;18.90;;;4.15;;
69954;SDS011;57279;55.912;37.490;2022-12-07T08:43:44;24.77;;;4.55;;
69954;SDS011;57279;55.912;37.490;2022-12-07T08:51:18;14.88;;;4.38;;
69954;SDS011;57279;55.912;37.490;2022-12-07T08:56:10;13.77;;;4.00;;
69954;SDS011;57279;55.912;37.490;2022-12-07T08:58:36;16.60;;;4.57;;
69954;SDS011;57279;55.912;37.490;2022-12-07T09:01:04;13.57;;;3.97;;
69954;SDS011;57279;55.912;37.490;2022-12-07T09:03:30;17.23;;;4.68;;
69954;SDS011;57279;55.912;37.490;2022-12-07T09:05:56;15.00;;;3.80;;
69954;SDS011;57279;55.912;37.490;2022-12-07T09:08:22;17.35;;;4.53;;
69954;SDS011;57279;55.912;37.490;2022-12-07T09:10:56;16.83;;;4.00;;
69954;SDS011;57279;55.912;37.490;2022-12-07T09:13:22;14.18;;;3.67;;
69954;SDS011;57279;55.912;37.490;2022-12-07T09:15:48;11.70;;;3.80;;
69954;SDS011;57279;55.912;37.490;2022-12-07T09:18:13;15.20;;;4.03;;
69954;SDS011;57279;55.912;37.490;2022-12-07T09:20:39;16.40;;;4.80;;
69954;SDS011;57279;55.912;37.490;2022-12-07T09:23:05;13.07;;;4.07;;
69954;SDS011;57279;55.912;37.490;2022-12-07T09:25:32;21.67;;;4.65;;
69954;SDS011;57279;55.912;37.490;2022-12-07T09:27:59;18.00;;;4.25;;
69954;SDS011;57279;55.912;37.490;2022-12-07T09:30:26;15.23;;;4.68;;
69954;SDS011;57279;55.912;37.490;2022-12-07T09:32:53;16.55;;;4.78;;
69954;SDS011;57279;55.912;37.490;2022-12-07T09:35:20;17.83;;;4.95;;
69954;SDS011;57279;55.912;37.490;2022-12-07T09:37:46;23.15;;;4.50;;
69954;SDS011;57279;55.912;37.490;2022-12-07T09:40:11;18.33;;;4.43;;
69954;SDS011;57279;55.912;37.490;2022-12-07T09:42:39;19.10;;;4.60;;
69954;SDS011;57279;55.912;37.490;2022-12-07T09:48:19;15.13;;;3.65;;
69954;SDS011;57279;55.912;37.490;2022-12-07T09:50:48;12.85;;;3.42;;
69954;SDS011;57279;55.912;37.490;2022-12-07T09:53:19;16.13;;;4.00;;
69954;SDS011;57279;55.912;37.490;2022-12-07T09:55:50;17.02;;;3.40;;
69954;SDS011;57279;55.912;37.490;2022-12-07T09:58:34;17.80;;;4.28;;
69954;SDS011;57279;55.912;37.490;2022-12-07T10:03:54;14.80;;;4.00;;
69954;SDS011;57279;55.912;37.490;2022-12-07T10:06:25;18.98;;;4.65;;
69954;SDS011;57279;55.912;37.490;2022-12-07T10:08:51;19.77;;;4.13;;
69954;SDS011;57279;55.912;37.490;2022-12-07T10:11:17;17.35;;;3.72;;
69954;SDS011;57279;55.912;37.490;2022-12-07T10:13:51;18.20;;;4.72;;
69954;SDS011;57279;55.912;37.490;2022-12-07T10:18:51;14.88;;;4.28;;
69954;SDS011;57279;55.912;37.490;2022-12-07T10:21:18;15.38;;;4.25;;
69954;SDS011;57279;55.912;37.490;2022-12-07T10:24:02;17.40;;;4.60;;
69954;SDS011;57279;55.912;37.490;2022-12-07T10:28:54;15.27;;;3.90;;
69954;SDS011;57279;55.912;37.490;2022-12-07T10:31:24;15.07;;;3.55;;
69954;SDS011;57279;55.912;37.490;2022-12-07T10:33:51;25.45;;;4.53;;
69954;SDS011;57279;55.912;37.490;2022-12-07T10:36:18;18.25;;;4.35;;
69954;SDS011;57279;55.912;37.490;2022-12-07T10:38:49;15.85;;;3.97;;
69954;SDS011;57279;55.912;37.490;2022-12-07T10:41:24;23.63;;;4.45;;
69954;SDS011;57279;55.912;37.490;2022-12-07T10:43:51;16.42;;;3.88;;
69954;SDS011;57279;55.912;37.490;2022-12-07T11:00:13;12.75;;;3.15;;
69954;SDS011;57279;55.912;37.490;2022-12-07T11:08:39;15.45;;;4.00;;
69954;SDS011;57279;55.912;37.490;2022-12-07T11:14:11;10.98;;;3.10;;
69954;SDS011;57279;55.912;37.490;2022-12-07T11:17:03;15.48;;;4.05;;
69954;SDS011;57279;55.912;37.490;2022-12-07T11:22:18;16.08;;;3.95;;
69954;SDS011;57279;55.912;37.490;2022-12-07T11:27:47;13.00;;;3.70;;
69954;SDS011;57279;55.912;37.490;2022-12-07T11:30:27;16.13;;;4.43;;
69954;SDS011;57279;55.912;37.490;2022-12-07T11:41:08;12.43;;;4.25;;
69954;SDS011;57279;55.912;37.490;2022-12-07T11:52:02;16.65;;;3.67;;
69954;SDS011;57279;55.912;37.490;2022-12-07T11:54:38;15.60;;;3.72;;
69954;SDS011;57279;55.912;37.490;2022-12-07T11:57:10;11.95;;;3.17;;
69954;SDS011;57279;55.912;37.490;2022-12-07T11:59:45;12.98;;;3.50;;
69954;SDS011;57279;55.912;37.490;2022-12-07T12:02:16;11.82;;;3.10;;
69954;SDS011;57279;55.912;37.490;2022-12-07T12:05:01;19.90;;;4.25;;
69954;SDS011;57279;55.912;37.490;2022-12-07T12:07:38;14.65;;;4.18;;
69954;SDS011;57279;55.912;37.490;2022-12-07T12:10:06;14.90;;;3.60;;
69954;SDS011;57279;55.912;37.490;2022-12-07T12:13:08;12.98;;;3.95;;
69954;SDS011;57279;55.912;37.490;2022-12-07T12:21:27;11.68;;;3.58;;
69954;SDS011;57279;55.912;37.490;2022-12-07T12:23:56;18.40;;;4.10;;
69954;SDS011;57279;55.912;37.490;2022-12-07T12:26:26;13.80;;;4.28;;
69954;SDS011;57279;55.912;37.490;2022-12-07T12:33:53;16.23;;;4.47;;
69954;SDS011;57279;55.912;37.490;2022-12-07T12:51:47;20.13;;;4.25;;
69954;SDS011;57279;55.912;37.490;2022-12-07T12:54:22;13.82;;;4.22;;
69954;SDS011;57279;55.912;37.490;2022-12-07T12:56:52;24.67;;;5.00;;
69954;SDS011;57279;55.912;37.490;2022-12-07T12:59:25;13.45;;;3.92;;
69954;SDS011;57279;55.912;37.490;2022-12-07T13:04:56;14.32;;;4.00;;
69954;SDS011;57279;55.912;37.490;2022-12-07T13:18:00;25.98;;;4.45;;
69954;SDS011;57279;55.912;37.490;2022-12-07T13:23:20;22.80;;;4.30;;
69954;SDS011;57279;55.912;37.490;2022-12-07T13:29:15;14.48;;;3.33;;
69954;SDS011;57279;55.912;37.490;2022-12-07T13:34:28;15.55;;;4.90;;
69954;SDS011;57279;55.912;37.490;2022-12-07T13:37:04;16.88;;;4.80;;
69954;SDS011;57279;55.912;37.490;2022-12-07T13:39:47;17.95;;;4.60;;
69954;SDS011;57279;55.912;37.490;2022-12-07T13:42:28;13.68;;;3.40;;
69954;SDS011;57279;55.912;37.490;2022-12-07T13:44:56;13.43;;;4.13;;
69954;SDS011;57279;55.912;37.490;2022-12-07T13:49:52;13.02;;;4.03;;
69954;SDS011;57279;55.912;37.490;2022-12-07T13:52:23;11.48;;;3.75;;
69954;SDS011;57279;55.912;37.490;2022-12-07T13:57:29;15.20;;;4.57;;
69954;SDS011;57279;55.912;37.490;2022-12-07T13:59:57;13.70;;;3.80;;
69954;SDS011;57279;55.912;37.490;2022-12-07T14:02:27;14.35;;;4.80;;
69954;SDS011;57279;55.912;37.490;2022-12-07T14:10:35;26.02;;;5.22;;
69954;SDS011;57279;55.912;37.490;2022-12-07T14:15:29;18.70;;;4.72;;
69954;SDS011;57279;55.912;37.490;2022-12-07T14:17:58;19.02;;;2.63;;
69954;SDS011;57279;55.912;37.490;2022-12-07T14:20:38;12.93;;;3.45;;
69954;SDS011;57279;55.912;37.490;2022-12-07T14:23:06;14.73;;;4.13;;
69954;SDS011;57279;55.912;37.490;2022-12-07T14:25:49;11.70;;;3.75;;
69954;SDS011;57279;55.912;37.490;2022-12-07T14:28:27;19.25;;;3.92;;
69954;SDS011;57279;55.912;37.490;2022-12-07T14:30:58;11.70;;;3.20;;
69954;SDS011;57279;55.912;37.490;2022-12-07T14:33:24;11.73;;;3.65;;
69954;SDS011;57279;55.912;37.490;2022-12-07T14:35:51;15.32;;;4.53;;
69954;SDS011;57279;55.912;37.490;2022-12-07T14:38:23;16.95;;;4.22;;
69954;SDS011;57279;55.912;37.490;2022-12-07T14:40:50;15.65;;;4.43;;
69954;SDS011;57279;55.912;37.490;2022-12-07T14:43:17;17.98;;;5.13;;
69954;SDS011;57279;55.912;37.490;2022-12-07T14:45:45;13.27;;;3.90;;
69954;SDS011;57279;55.912;37.490;2022-12-07T14:48:11;16.58;;;4.28;;
69954;SDS011;57279;55.912;37.490;2022-12-07T14:50:40;20.88;;;5.28;;
69954;SDS011;57279;55.912;37.490;2022-12-07T14:53:11;16.52;;;5.43;;
69954;SDS011;57279;55.912;37.490;2022-12-07T14:55:39;16.58;;;4.55;;
69954;SDS011;57279;55.912;37.490;2022-12-07T14:58:05;27.83;;;4.93;;
69954;SDS011;57279;55.912;37.490;2022-12-07T15:00:30;15.85;;;4.57;;
69954;SDS011;57279;55.912;37.490;2022-12-07T15:02:56;17.45;;;4.68;;
69954;SDS011;57279;55.912;37.490;2022-12-07T15:05:22;14.15;;;4.20;;
69954;SDS011;57279;55.912;37.490;2022-12-07T15:07:49;28.95;;;8.35;;
69954;SDS011;57279;55.912;37.490;2022-12-07T15:12:48;14.55;;;4.20;;
69954;SDS011;57279;55.912;37.490;2022-12-07T15:15:14;17.45;;;5.15;;
69954;SDS011;57279;55.912;37.490;2022-12-07T15:17:40;17.25;;;5.40;;
69954;SDS011;57279;55.912;37.490;2022-12-07T15:20:08;18.10;;;5.70;;
69954;SDS011;57279;55.912;37.490;2022-12-07T15:22:38;24.55;;;6.90;;
69954;SDS011;57279;55.912;37.490;2022-12-07T15:25:04;15.32;;;4.47;;
69954;SDS011;57279;55.912;37.490;2022-12-07T15:27:31;15.90;;;4.75;;
69954;SDS011;57279;55.912;37.490;2022-12-07T15:29:56;29.45;;;8.13;;
69954;SDS011;57279;55.912;37.490;2022-12-07T15:32:22;15.35;;;5.35;;
69954;SDS011;57279;55.912;37.490;2022-12-07T15:34:48;16.83;;;4.82;;
69954;SDS011;57279;55.912;37.490;2022-12-07T15:37:15;16.42;;;4.97;;
69954;SDS011;57279;55.912;37.490;2022-12-07T15:39:41;16.17;;;4.90;;
69954;SDS011;57279;55.912;37.490;2022-12-07T15:42:06;18.85;;;5.07;;
69954;SDS011;57279;55.912;37.490;2022-12-07T15:44:33;15.95;;;4.03;;
69954;SDS011;57279;55.912;37.490;2022-12-07T15:47:17;18.38;;;5.93;;
69954;SDS011;57279;55.912;37.490;2022-12-07T15:49:43;20.23;;;4.57;;
69954;SDS011;57279;55.912;37.490;2022-12-07T15:52:08;16.45;;;4.55;;
69954;SDS011;57279;55.912;37.490;2022-12-07T15:54:34;14.55;;;4.20;;
69954;SDS011;57279;55.912;37.490;2022-12-07T15:57:00;16.92;;;5.03;;
69954;SDS011;57279;55.912;37.490;2022-12-07T15:59:26;24.30;;;9.30;;
69954;SDS011;57279;55.912;37.490;2022-12-07T16:01:53;17.48;;;6.05;;
69954;SDS011;57279;55.912;37.490;2022-12-07T16:04:19;20.65;;;5.32;;
69954;SDS011;57279;55.912;37.490;2022-12-07T16:06:45;15.68;;;4.40;;
69954;SDS011;57279;55.912;37.490;2022-12-07T16:09:11;15.52;;;4.28;;
69954;SDS011;57279;55.912;37.490;2022-12-07T16:11:37;17.38;;;4.70;;
69954;SDS011;57279;55.912;37.490;2022-12-07T16:14:03;19.45;;;5.10;;
69954;SDS011;57279;55.912;37.490;2022-12-07T16:16:29;17.45;;;5.47;;
69954;SDS011;57279;55.912;37.490;2022-12-07T16:18:55;22.98;;;7.68;;
69954;SDS011;57279;55.912;37.490;2022-12-07T16:21:22;24.20;;;6.55;;
69954;SDS011;57279;55.912;37.490;2022-12-07T16:23:48;17.40;;;4.55;;
69954;SDS011;57279;55.912;37.490;2022-12-07T16:26:14;20.23;;;5.38;;
69954;SDS011;57279;55.912;37.490;2022-12-07T16:28:42;18.67;;;4.78;;
69954;SDS011;57279;55.912;37.490;2022-12-07T16:31:13;22.40;;;5.25;;
69954;SDS011;57279;55.912;37.490;2022-12-07T16:33:40;16.15;;;4.68;;
69954;SDS011;57279;55.912;37.490;2022-12-07T16:36:08;16.65;;;4.78;;
69954;SDS011;57279;55.912;37.490;2022-12-07T16:38:36;13.30;;;4.07;;
69954;SDS011;57279;55.912;37.490;2022-12-07T16:41:02;16.02;;;5.18;;
69954;SDS011;57279;55.912;37.490;2022-12-07T16:43:28;21.55;;;4.90;;
69954;SDS011;57279;55.912;37.490;2022-12-07T16:45:53;14.95;;;4.53;;
69954;SDS011;57279;55.912;37.490;2022-12-07T16:48:19;19.35;;;5.30;;
69954;SDS011;57279;55.912;37.490;2022-12-07T16:50:45;17.75;;;4.97;;
69954;SDS011;57279;55.912;37.490;2022-12-07T16:53:12;19.08;;;5.25;;
69954;SDS011;57279;55.912;37.490;2022-12-07T16:55:40;14.63;;;4.85;;
69954;SDS011;57279;55.912;37.490;2022-12-07T16:58:11;16.75;;;4.53;;
69954;SDS011;57279;55.912;37.490;2022-12-07T17:00:38;19.75;;;5.15;;
69954;SDS011;57279;55.912;37.490;2022-12-07T17:03:04;15.15;;;4.82;;
69954;SDS011;57279;55.912;37.490;2022-12-07T17:05:30;14.10;;;3.70;;
69954;SDS011;57279;55.912;37.490;2022-12-07T17:07:56;14.60;;;4.75;;
69954;SDS011;57279;55.912;37.490;2022-12-07T17:10:23;16.58;;;5.30;;
69954;SDS011;57279;55.912;37.490;2022-12-07T17:12:49;21.15;;;4.38;;
69954;SDS011;57279;55.912;37.490;2022-12-07T17:15:15;17.25;;;5.28;;
69954;SDS011;57279;55.912;37.490;2022-12-07T17:17:53;28.20;;;5.00;;
69954;SDS011;57279;55.912;37.490;2022-12-07T17:20:23;15.02;;;4.70;;
69954;SDS011;57279;55.912;37.490;2022-12-07T17:22:50;16.15;;;4.75;;
69954;SDS011;57279;55.912;37.490;2022-12-07T17:25:16;14.20;;;4.55;;
69954;SDS011;57279;55.912;37.490;2022-12-07T17:27:43;14.93;;;4.82;;